createdAt,value
2023-03-06T00:01:35.117Z,99317.00
2023-03-06T00:04:07.721Z,99322.00
2023-03-06T00:06:37.689Z,99322.40
2023-03-06T00:09:08.722Z,99316.20
2023-03-06T00:11:38.837Z,99311.60
2023-03-06T00:14:08.865Z,99311.80
2023-03-06T00:16:38.975Z,99315.80
2023-03-06T00:19:08.943Z,99314.20
2023-03-06T00:21:41.318Z,99312.80
2023-03-06T00:24:11.290Z,99314.40
2023-03-06T00:26:41.427Z,99306.00
2023-03-06T00:29:11.829Z,99315.00
2023-03-06T00:31:45.845Z,99309.00
2023-03-06T00:34:15.980Z,99308.60
2023-03-06T00:36:46.187Z,99305.40
2023-03-06T00:39:16.218Z,99296.60
2023-03-06T00:41:47.122Z,99304.80
2023-03-06T00:44:17.318Z,99303.20
2023-03-06T00:46:47.603Z,99297.80
2023-03-06T00:49:17.517Z,99294.20
2023-03-06T00:51:47.614Z,99294.60
2023-03-06T00:54:17.666Z,99296.20
2023-03-06T00:56:48.271Z,99288.80
2023-03-06T00:59:18.185Z,99287.60
2023-03-06T01:01:48.229Z,99278.80
2023-03-06T01:04:18.126Z,99274.80
2023-03-06T01:06:48.175Z,99275.40
2023-03-06T01:09:18.253Z,99270.20
2023-03-06T01:11:48.842Z,99262.40
2023-03-06T01:14:19.129Z,99262.20
2023-03-06T01:16:49.104Z,99260.00
2023-03-06T01:19:20.214Z,99259.60
2023-03-06T01:21:50.037Z,99258.00
2023-03-06T01:24:19.800Z,99262.20
2023-03-06T01:26:49.984Z,99256.40
2023-03-06T01:29:19.976Z,99254.60
2023-03-06T01:31:49.706Z,99245.60
2023-03-06T01:34:19.513Z,99242.80
2023-03-06T01:36:49.310Z,99239.80
2023-03-06T01:39:19.200Z,99242.40
2023-03-06T01:41:49.398Z,99237.20
2023-03-06T01:44:19.167Z,99228.80
2023-03-06T01:46:50.456Z,99228.00
2023-03-06T01:49:25.224Z,99225.00
2023-03-06T01:51:58.599Z,99224.00
2023-03-06T01:54:31.976Z,99227.60
2023-03-06T01:57:07.128Z,99225.00
2023-03-06T01:59:39.913Z,99224.40
2023-03-06T02:02:12.354Z,99222.80
2023-03-06T02:04:43.659Z,99220.40
2023-03-06T02:07:16.716Z,99221.20
2023-03-06T02:09:46.584Z,99214.80
2023-03-06T02:12:19.128Z,99220.00
2023-03-06T02:14:50.082Z,99218.40
2023-03-06T02:17:23.074Z,99217.00
2023-03-06T02:20:01.828Z,99214.20
2023-03-06T02:22:40.210Z,99201.40
2023-03-06T02:25:20.658Z,99206.00
2023-03-06T02:27:49.782Z,99201.40
2023-03-06T02:30:20.415Z,99195.40
2023-03-06T02:32:50.124Z,99192.00
2023-03-06T02:35:24.609Z,99185.80
2023-03-06T02:37:56.738Z,99180.40
2023-03-06T02:40:26.663Z,99174.60
2023-03-06T02:42:58.930Z,99181.20
2023-03-06T02:45:34.845Z,99186.20
2023-03-06T02:48:04.994Z,99179.80
2023-03-06T02:50:34.903Z,99174.00
2023-03-06T02:53:04.660Z,99177.20
2023-03-06T02:55:34.558Z,99170.60
2023-03-06T02:58:07.104Z,99169.20
2023-03-06T03:00:39.050Z,99162.40
2023-03-06T03:03:11.018Z,99165.00
2023-03-06T03:05:40.866Z,99156.40
2023-03-06T03:08:22.983Z,99152.20
2023-03-06T03:10:56.289Z,99147.00
2023-03-06T03:13:26.623Z,99147.20
2023-03-06T03:16:05.115Z,99147.20
2023-03-06T03:18:35.438Z,99143.00
2023-03-06T03:21:13.312Z,99142.60
2023-03-06T03:23:43.112Z,99138.80
2023-03-06T03:26:16.313Z,99133.40
2023-03-06T03:28:50.044Z,99131.60
2023-03-06T03:31:21.291Z,99125.40
2023-03-06T03:33:52.724Z,99123.00
2023-03-06T03:36:22.527Z,99118.40
2023-03-06T03:38:52.291Z,99117.20
2023-03-06T03:41:22.429Z,99109.40
2023-03-06T03:43:52.137Z,99110.20
2023-03-06T03:46:22.584Z,99105.20
2023-03-06T03:48:52.493Z,99102.40
2023-03-06T03:51:22.359Z,99104.40
2023-03-06T03:53:56.272Z,99102.40
2023-03-06T03:56:26.642Z,99100.40
2023-03-06T03:59:01.909Z,99096.00
2023-03-06T04:01:35.220Z,99094.40
2023-03-06T04:04:05.273Z,99088.20
2023-03-06T04:06:35.025Z,99087.60
2023-03-06T04:09:04.892Z,99085.60
2023-03-06T04:11:34.970Z,99079.80
2023-03-06T04:14:04.809Z,99077.00
2023-03-06T04:16:34.700Z,99072.00
2023-03-06T04:19:04.476Z,99073.80
2023-03-06T04:21:34.485Z,99069.00
2023-03-06T04:24:05.061Z,99063.40
2023-03-06T04:26:35.530Z,99062.60
2023-03-06T04:29:04.232Z,99059.20
2023-03-06T04:31:34.806Z,99067.20
2023-03-06T04:34:04.564Z,99067.40
2023-03-06T04:36:37.164Z,99059.60
2023-03-06T04:39:11.038Z,99059.20
2023-03-06T04:41:41.737Z,99036.00
2023-03-06T04:44:11.620Z,99038.60
2023-03-06T04:46:41.375Z,99046.20
2023-03-06T04:49:11.086Z,99050.40
2023-03-06T04:51:40.787Z,99049.80
2023-03-06T04:54:10.582Z,99045.40
2023-03-06T04:56:40.277Z,99038.80
2023-03-06T04:59:10.309Z,99033.60
2023-03-06T05:01:39.968Z,99044.40
2023-03-06T05:04:09.669Z,99040.40
2023-03-06T05:06:39.451Z,99040.80
2023-03-06T05:09:09.188Z,99050.60
2023-03-06T05:11:38.927Z,99042.60
2023-03-06T05:14:08.780Z,99043.20
2023-03-06T05:16:38.740Z,99038.40
2023-03-06T05:19:08.518Z,99039.00
2023-03-06T05:21:38.367Z,99037.80
2023-03-06T05:24:09.430Z,99029.40
2023-03-06T05:26:39.387Z,99031.00
2023-03-06T05:29:09.188Z,99038.40
2023-03-06T05:31:38.989Z,99029.00
2023-03-06T05:34:09.530Z,99026.40
2023-03-06T05:36:39.361Z,99029.40
2023-03-06T05:39:09.540Z,99031.40
2023-03-06T05:41:39.352Z,99031.20
2023-03-06T05:44:09.242Z,99026.20
2023-03-06T05:46:39.015Z,99029.20
2023-03-06T05:49:08.887Z,99025.80
2023-03-06T05:51:38.564Z,99029.60
2023-03-06T05:54:08.731Z,99024.40
2023-03-06T05:56:38.629Z,99021.80
2023-03-06T05:59:08.369Z,99023.40
2023-03-06T06:01:38.034Z,99024.80
2023-03-06T06:04:07.982Z,99020.60
2023-03-06T06:06:37.824Z,99021.60
2023-03-06T06:09:07.607Z,99023.60
2023-03-06T06:11:37.324Z,99025.40
2023-03-06T06:14:07.066Z,99027.60
2023-03-06T06:16:36.937Z,99023.20
2023-03-06T06:19:07.069Z,99025.60
2023-03-06T06:21:36.851Z,99024.60
2023-03-06T06:24:07.893Z,99028.20
2023-03-06T06:26:37.652Z,99023.40
2023-03-06T06:29:08.710Z,99030.00
2023-03-06T06:31:38.685Z,99030.20
2023-03-06T06:34:10.025Z,99034.20
2023-03-06T06:36:40.325Z,99038.20
2023-03-06T06:39:11.686Z,99035.80
2023-03-06T06:42:00.299Z,99037.60
2023-03-06T06:44:31.394Z,99038.40
2023-03-06T06:49:54.101Z,99042.20
2023-03-06T06:52:24.853Z,99037.60
2023-03-06T06:54:55.160Z,99037.60
2023-03-06T06:57:25.030Z,99040.60
2023-03-06T06:59:55.085Z,99033.60
2023-03-06T07:02:25.212Z,99037.20
2023-03-06T07:05:04.154Z,99037.60
2023-03-06T07:07:38.058Z,99037.00
2023-03-06T07:10:12.419Z,99029.40
2023-03-06T07:12:42.231Z,99028.20
2023-03-06T07:15:15.654Z,99030.80
2023-03-06T07:17:45.824Z,99033.60
2023-03-06T07:20:16.508Z,99028.60
2023-03-06T07:22:51.410Z,99029.80
2023-03-06T07:25:22.206Z,99031.00
2023-03-06T07:27:54.646Z,99034.60
2023-03-06T07:30:25.250Z,99029.20
2023-03-06T07:32:55.370Z,99033.40
2023-03-06T07:35:26.710Z,99041.40
2023-03-06T07:37:56.703Z,99036.40
2023-03-06T07:40:27.309Z,99045.20
2023-03-06T07:43:09.127Z,99050.80
2023-03-06T07:45:46.512Z,99046.60
2023-03-06T07:48:16.834Z,99048.00
2023-03-06T07:50:54.413Z,99050.00
2023-03-06T07:53:24.253Z,99049.60
2023-03-06T07:55:54.306Z,99046.20
2023-03-06T07:58:24.746Z,99045.40
2023-03-06T08:00:54.730Z,99054.00
2023-03-06T08:03:24.646Z,99055.40
2023-03-06T08:05:54.349Z,99047.20
2023-03-06T08:08:24.117Z,99052.20
2023-03-06T08:10:53.877Z,99048.60
2023-03-06T08:13:23.640Z,99052.60
2023-03-06T08:15:53.354Z,99041.00
2023-03-06T08:18:23.268Z,99046.00
2023-03-06T08:21:02.630Z,99049.20
2023-03-06T08:23:33.474Z,99042.80
2023-03-06T08:26:06.685Z,99042.60
2023-03-06T08:28:36.549Z,99048.40
2023-03-06T08:31:30.800Z,99041.40
2023-03-06T08:34:05.160Z,99045.40
2023-03-06T08:36:35.327Z,99041.20
2023-03-06T08:39:06.058Z,99045.60
2023-03-06T08:41:36.992Z,99044.00
2023-03-06T08:44:07.614Z,99044.20
2023-03-06T08:46:36.511Z,99038.80
2023-03-06T08:49:06.574Z,99043.60
2023-03-06T08:51:36.745Z,99037.40
2023-03-06T08:54:06.948Z,99042.60
2023-03-06T08:56:36.913Z,99049.40
2023-03-06T08:59:08.821Z,99039.40
2023-03-06T09:01:39.329Z,99045.40
2023-03-06T09:04:10.948Z,99042.20
2023-03-06T09:06:43.618Z,99042.00
2023-03-06T09:09:14.166Z,99047.80
2023-03-06T09:11:44.002Z,99040.40
2023-03-06T09:14:14.086Z,99040.00
2023-03-06T09:16:44.088Z,99042.20
2023-03-06T09:19:14.115Z,99042.00
2023-03-06T09:21:43.930Z,99037.00
2023-03-06T09:24:13.776Z,99043.20
2023-03-06T09:26:46.497Z,99044.40
2023-03-06T09:29:17.041Z,99035.20
2023-03-06T09:31:46.796Z,99036.20
2023-03-06T09:34:16.586Z,99032.60
2023-03-06T09:36:56.661Z,99039.60
2023-03-06T09:39:27.483Z,99040.40
2023-03-06T09:41:58.193Z,99033.80
2023-03-06T09:44:31.229Z,99035.60
2023-03-06T09:47:20.273Z,99030.40
2023-03-06T09:50:15.654Z,99035.80
2023-03-06T09:53:02.273Z,99038.40
2023-03-06T09:55:35.395Z,99033.40
2023-03-06T09:58:11.289Z,99031.00
2023-03-06T10:00:46.591Z,99027.40
2023-03-06T10:03:27.234Z,99028.40
2023-03-06T10:06:02.951Z,99028.60
2023-03-06T10:08:43.548Z,99035.00
2023-03-06T10:11:18.357Z,99030.80
2023-03-06T10:13:53.366Z,99023.40
2023-03-06T10:16:28.800Z,99025.20
2023-03-06T10:19:01.948Z,99022.20
2023-03-06T10:21:43.640Z,99021.20
2023-03-06T10:24:47.353Z,99019.40
2023-03-06T10:27:31.134Z,99013.40
2023-03-06T10:30:16.631Z,99016.80
2023-03-06T10:32:54.957Z,99007.40
2023-03-06T10:35:31.052Z,99003.00
2023-03-06T10:38:15.761Z,99002.60
2023-03-06T10:41:05.697Z,98995.80
2023-03-06T10:43:36.897Z,98992.60
2023-03-06T10:46:09.260Z,98990.80
2023-03-06T10:48:42.145Z,98987.80
2023-03-06T10:51:25.439Z,98986.60
2023-03-06T10:53:57.980Z,98980.00
2023-03-06T10:56:33.602Z,98971.60
2023-03-06T10:59:13.926Z,98975.60
2023-03-06T11:01:46.749Z,98976.60
2023-03-06T11:04:27.018Z,98974.80
2023-03-06T11:07:14.323Z,98970.20
2023-03-06T11:09:47.648Z,98973.40
2023-03-06T11:12:31.978Z,98970.80
2023-03-06T11:15:22.295Z,98966.80
2023-03-06T11:18:04.286Z,98959.00
2023-03-06T11:20:51.580Z,98962.80
2023-03-06T11:23:31.762Z,98964.80
2023-03-06T11:26:08.563Z,98960.80
2023-03-06T11:28:43.705Z,98957.80
2023-03-06T11:31:17.191Z,98957.00
2023-03-06T11:33:51.516Z,98957.80
2023-03-06T11:36:29.279Z,98952.20
2023-03-06T11:38:59.208Z,98955.20
2023-03-06T11:41:39.139Z,98954.80
2023-03-06T11:44:19.389Z,98953.40
2023-03-06T11:46:53.717Z,98953.20
2023-03-06T11:49:34.655Z,98952.40
2023-03-06T11:52:12.800Z,98945.60
2023-03-06T11:54:42.577Z,98941.00
2023-03-06T11:57:18.019Z,98939.00
2023-03-06T12:00:21.671Z,98937.40
2023-03-06T12:03:43.756Z,98937.00
2023-03-06T12:06:25.080Z,98925.60
2023-03-06T12:09:18.803Z,98923.00
2023-03-06T12:12:04.032Z,98933.60
2023-03-06T12:14:55.549Z,98926.40
2023-03-06T12:17:36.335Z,98912.60
2023-03-06T12:20:28.121Z,98911.40
2023-03-06T12:23:15.479Z,98903.80
2023-03-06T12:25:55.600Z,98900.80
2023-03-06T12:28:40.745Z,98901.20
2023-03-06T12:31:28.115Z,98893.40
2023-03-06T12:34:14.428Z,98895.40
2023-03-06T12:37:04.885Z,98892.80
2023-03-06T12:39:44.445Z,98888.00
2023-03-06T12:43:03.838Z,98885.60
2023-03-06T12:45:34.445Z,98887.20
2023-03-06T12:48:09.531Z,98886.80
2023-03-06T12:50:43.887Z,98890.20
2023-03-06T12:53:23.536Z,98899.80
2023-03-06T12:55:54.821Z,98892.40
2023-03-06T12:58:51.615Z,98894.40
2023-03-06T13:01:42.312Z,98897.80
2023-03-06T13:04:33.762Z,98897.60
2023-03-06T13:07:27.204Z,98899.60
2023-03-06T13:10:21.145Z,98906.20
2023-03-06T13:12:55.692Z,98909.00
2023-03-06T13:15:41.323Z,98907.40
2023-03-06T13:19:01.144Z,98913.20
2023-03-06T13:22:26.292Z,98909.20
2023-03-06T13:25:43.223Z,98907.40
2023-03-06T13:28:38.085Z,98912.20
2023-03-06T13:31:18.190Z,98914.40
2023-03-06T13:33:59.393Z,98917.20
2023-03-06T13:36:34.012Z,98924.40
2023-03-06T13:39:08.798Z,98920.80
2023-03-06T13:41:57.407Z,98926.40
2023-03-06T13:44:48.529Z,98932.60
2023-03-06T13:50:46.265Z,98932.20
2023-03-06T13:53:57.747Z,98928.60
2023-03-06T13:57:14.479Z,98926.80
2023-03-06T14:00:18.412Z,98928.00
2023-03-06T14:03:27.980Z,98929.20
2023-03-06T14:05:58.665Z,98929.60
2023-03-06T14:08:30.755Z,98932.40
2023-03-06T14:11:08.210Z,98930.60
2023-03-06T14:13:47.984Z,98934.00
2023-03-06T14:16:23.377Z,98926.00
2023-03-06T14:18:55.907Z,98917.00
2023-03-06T14:21:31.163Z,98911.80
2023-03-06T14:24:02.809Z,98904.40
2023-03-06T14:26:39.860Z,98901.20
2023-03-06T14:29:22.137Z,98899.80
2023-03-06T14:31:53.676Z,98895.60
2023-03-06T14:34:26.359Z,98894.60
2023-03-06T14:36:58.771Z,98898.60
2023-03-06T14:39:34.791Z,98895.00
2023-03-06T14:42:15.538Z,98895.80
2023-03-06T14:44:45.658Z,98887.80
2023-03-06T14:47:27.238Z,98884.00
2023-03-06T14:50:23.352Z,98881.60
2023-03-06T14:52:56.990Z,98876.40
2023-03-06T14:55:29.755Z,98876.20
2023-03-06T14:58:07.779Z,98873.20
2023-03-06T15:00:43.135Z,98872.40
2023-03-06T15:03:18.103Z,98871.40
2023-03-06T15:05:49.270Z,98865.60
2023-03-06T15:08:24.263Z,98869.40
2023-03-06T15:10:59.929Z,98866.60
2023-03-06T15:13:32.097Z,98870.60
2023-03-06T15:16:04.872Z,98868.20
2023-03-06T15:18:38.626Z,98867.20
2023-03-06T15:21:18.574Z,98869.40
2023-03-06T15:23:50.866Z,98867.80
2023-03-06T15:26:30.790Z,98869.40
2023-03-06T15:29:20.071Z,98871.00
2023-03-06T15:31:49.903Z,98872.20
2023-03-06T15:34:27.096Z,98875.20
2023-03-06T15:36:58.922Z,98873.40
2023-03-06T15:40:01.915Z,98869.60
2023-03-06T15:42:35.402Z,98871.60
2023-03-06T15:45:16.044Z,98875.60
2023-03-06T15:47:46.562Z,98876.60
2023-03-06T15:50:16.992Z,98873.60
2023-03-06T15:52:47.910Z,98879.00
2023-03-06T15:55:20.878Z,98873.00
2023-03-06T15:57:54.077Z,98871.40
2023-03-06T16:00:28.797Z,98869.80
2023-03-06T16:02:59.123Z,98870.00
2023-03-06T16:05:30.000Z,98866.80
2023-03-06T16:07:59.829Z,98866.20
2023-03-06T16:10:32.861Z,98863.20
2023-03-06T16:13:06.214Z,98870.40
2023-03-06T16:15:40.909Z,98865.80
2023-03-06T16:18:13.662Z,98869.80
2023-03-06T16:20:43.670Z,98866.00
2023-03-06T16:23:14.916Z,98869.60
2023-03-06T16:25:48.922Z,98868.00
2023-03-06T16:28:18.883Z,98867.40
2023-03-06T16:30:48.799Z,98872.60
2023-03-06T16:33:18.715Z,98872.80
2023-03-06T16:35:49.466Z,98870.60
2023-03-06T16:38:19.202Z,98870.60
2023-03-06T16:40:49.003Z,98872.80
2023-03-06T16:43:18.745Z,98871.40
2023-03-06T16:45:48.744Z,98875.40
2023-03-06T16:48:18.570Z,98871.20
2023-03-06T16:50:48.422Z,98876.00
2023-03-06T16:53:18.663Z,98874.80
2023-03-06T16:55:48.839Z,98878.80
2023-03-06T16:58:19.870Z,98877.00
2023-03-06T17:00:49.670Z,98877.20
2023-03-06T17:03:19.497Z,98882.80
2023-03-06T17:05:49.320Z,98883.60
2023-03-06T17:08:19.158Z,98885.60
2023-03-06T17:10:50.264Z,98889.40
2023-03-06T17:13:20.405Z,98889.20
2023-03-06T17:15:56.535Z,98889.00
2023-03-06T17:18:28.762Z,98894.00
2023-03-06T17:20:59.142Z,98892.00
2023-03-06T17:23:30.032Z,98896.00
2023-03-06T17:26:09.083Z,98898.60
2023-03-06T17:28:39.719Z,98896.60
2023-03-06T17:31:15.518Z,98900.00
2023-03-06T17:33:45.950Z,98894.00
2023-03-06T17:36:16.712Z,98892.60
2023-03-06T17:38:47.135Z,98892.60
2023-03-06T17:41:17.113Z,98893.20
2023-03-06T17:43:47.384Z,98894.60
2023-03-06T17:46:18.167Z,98895.60
2023-03-06T17:48:48.455Z,98900.60
2023-03-06T17:51:18.332Z,98901.20
2023-03-06T17:53:48.771Z,98896.40
2023-03-06T17:56:17.802Z,98894.40
2023-03-06T17:58:47.702Z,98898.00
2023-03-06T18:01:20.542Z,98899.00
2023-03-06T18:03:52.191Z,98895.60
2023-03-06T18:06:22.564Z,98895.20
2023-03-06T18:08:53.094Z,98898.80
2023-03-06T18:11:22.594Z,98894.00
2023-03-06T18:13:52.800Z,98899.00
2023-03-06T18:16:26.594Z,98897.20
2023-03-06T18:18:57.963Z,98902.00
2023-03-06T18:21:28.100Z,98901.00
2023-03-06T18:23:59.203Z,98904.80
2023-03-06T18:26:30.849Z,98908.20
2023-03-06T18:29:03.963Z,98907.20
2023-03-06T18:31:36.081Z,98906.40
2023-03-06T18:34:10.373Z,98906.00
2023-03-06T18:36:43.187Z,98905.20
2023-03-06T18:39:15.531Z,98903.00
2023-03-06T18:41:45.444Z,98904.20
2023-03-06T18:44:17.099Z,98901.80
2023-03-06T18:46:47.325Z,98903.80
2023-03-06T18:49:18.468Z,98909.40
2023-03-06T18:51:55.191Z,98912.60
2023-03-06T18:54:27.941Z,98918.00
2023-03-06T18:56:57.938Z,98916.80
2023-03-06T18:59:28.486Z,98920.40
2023-03-06T19:01:58.931Z,98923.40
2023-03-06T19:04:29.451Z,98919.00
2023-03-06T19:06:59.291Z,98920.60
2023-03-06T19:09:29.086Z,98924.40
2023-03-06T19:12:03.952Z,98923.40
2023-03-06T19:14:44.591Z,98922.20
2023-03-06T19:17:15.620Z,98924.00
2023-03-06T19:20:00.355Z,98917.80
2023-03-06T19:22:41.701Z,98925.00
2023-03-06T19:25:13.397Z,98921.00
2023-03-06T19:27:44.350Z,98924.60
2023-03-06T19:30:16.862Z,98920.60
2023-03-06T19:32:47.291Z,98926.60
2023-03-06T19:35:17.663Z,98930.60
2023-03-06T19:37:46.542Z,98937.40
2023-03-06T19:40:16.691Z,98936.60
2023-03-06T19:42:46.523Z,98942.00
2023-03-06T19:45:16.683Z,98937.20
2023-03-06T19:47:46.980Z,98932.00
2023-03-06T19:50:17.470Z,98934.20
2023-03-06T19:52:46.185Z,98934.40
2023-03-06T19:55:16.300Z,98932.40
2023-03-06T19:57:46.162Z,98932.60
2023-03-06T20:00:18.567Z,98928.60
2023-03-06T20:02:49.028Z,98934.20
2023-03-06T20:05:18.016Z,98939.40
2023-03-06T20:07:48.426Z,98946.40
2023-03-06T20:10:18.082Z,98951.60
2023-03-06T20:12:47.846Z,98948.40
2023-03-06T20:15:19.888Z,98956.80
2023-03-06T20:17:49.775Z,98959.60
2023-03-06T20:20:20.207Z,98959.40
2023-03-06T20:22:50.054Z,98960.20
2023-03-06T20:25:20.191Z,98960.20
2023-03-06T20:27:49.970Z,98961.00
2023-03-06T20:30:20.471Z,98961.40
2023-03-06T20:32:49.176Z,98961.60
2023-03-06T20:35:19.242Z,98960.60
2023-03-06T20:37:49.012Z,98962.40
2023-03-06T20:40:19.302Z,98964.40
2023-03-06T20:42:49.127Z,98966.60
2023-03-06T20:45:19.204Z,98966.60
2023-03-06T20:47:49.360Z,98961.80
2023-03-06T20:50:19.672Z,98955.20
2023-03-06T20:52:53.149Z,98958.40
2023-03-06T20:55:23.066Z,98963.20
2023-03-06T20:57:53.227Z,98957.20
2023-03-06T21:00:26.198Z,98958.40
2023-03-06T21:03:01.027Z,98964.20
2023-03-06T21:05:31.869Z,98959.40
2023-03-06T21:08:01.779Z,98959.00
2023-03-06T21:10:31.686Z,98959.80
2023-03-06T21:13:01.859Z,98954.80
2023-03-06T21:15:32.048Z,98959.60
2023-03-06T21:18:01.883Z,98958.80
2023-03-06T21:20:31.934Z,98949.80
2023-03-06T21:23:01.847Z,98950.80
2023-03-06T21:25:31.989Z,98955.00
2023-03-06T21:28:01.949Z,98948.00
2023-03-06T21:30:32.022Z,98950.20
2023-03-06T21:33:03.362Z,98949.40
2023-03-06T21:35:36.529Z,98955.40
2023-03-06T21:38:07.309Z,98947.80
2023-03-06T21:40:37.548Z,98953.20
2023-03-06T21:43:08.389Z,98953.20
2023-03-06T21:45:42.700Z,98946.00
2023-03-06T21:48:13.415Z,98946.40
2023-03-06T21:50:42.399Z,98947.40
2023-03-06T21:53:12.211Z,98944.20
2023-03-06T21:55:42.415Z,98947.20
2023-03-06T21:58:12.225Z,98948.20
2023-03-06T22:00:42.063Z,98949.40
2023-03-06T22:03:12.678Z,98950.60
2023-03-06T22:05:42.757Z,98946.60
2023-03-06T22:08:12.589Z,98941.00
2023-03-06T22:10:42.588Z,98941.00
2023-03-06T22:13:12.729Z,98937.60
2023-03-06T22:15:50.227Z,98937.00
2023-03-06T22:18:20.230Z,98935.00
2023-03-06T22:20:50.161Z,98933.00
2023-03-06T22:23:19.943Z,98933.60
2023-03-06T22:25:49.708Z,98933.80
2023-03-06T22:28:20.266Z,98931.20
2023-03-06T22:30:49.094Z,98931.20
2023-03-06T22:33:19.017Z,98932.20
2023-03-06T22:35:48.809Z,98928.60
2023-03-06T22:38:18.681Z,98932.20
2023-03-06T22:40:48.414Z,98928.40
2023-03-06T22:43:19.539Z,98931.60
2023-03-06T22:45:49.263Z,98931.60
2023-03-06T22:48:19.112Z,98925.60
2023-03-06T22:50:48.960Z,98927.20
2023-03-06T22:53:18.791Z,98933.20
2023-03-06T22:55:48.543Z,98927.40
2023-03-06T22:58:18.301Z,98925.40
2023-03-06T23:00:48.063Z,98920.80
2023-03-06T23:03:17.942Z,98923.20
2023-03-06T23:05:47.817Z,98925.20
2023-03-06T23:08:17.504Z,98925.60
2023-03-06T23:10:47.239Z,98929.00
2023-03-06T23:13:35.768Z,98927.20
2023-03-06T23:16:24.171Z,98927.00
2023-03-06T23:19:12.352Z,98927.00
2023-03-06T23:22:00.759Z,98927.60
2023-03-06T23:24:49.174Z,98922.00
2023-03-06T23:27:19.228Z,98925.20
2023-03-06T23:29:54.836Z,98927.00
2023-03-06T23:32:24.707Z,98926.20
2023-03-06T23:34:54.511Z,98925.20
2023-03-06T23:37:24.486Z,98923.00
2023-03-06T23:39:54.499Z,98932.60
2023-03-06T23:42:24.364Z,98927.40
2023-03-06T23:44:54.255Z,98930.00
2023-03-06T23:47:24.163Z,98932.20
2023-03-06T23:49:53.912Z,98933.40
2023-03-06T23:52:23.936Z,98926.00
2023-03-06T23:54:53.708Z,98928.60
2023-03-06T23:57:23.419Z,98931.40
2023-03-06T23:59:53.334Z,98933.40
